Main page
METAR-TAF:

METAR-TAF

Airports :

Eleusina, Greece

latitude: 38-04N, longitude: 023-33E, elevation: 44 m

Current weather observation

The report was made 42 minutes ago, at 08:20 UTC
Wind 4 kt from the South/Southwest
Temperature 23°C
Humidity 29%
Pressure 1017 hPa
Visibility 10 km or more
no clouds below 1500 m and no cumulonimbus

METAR: LGEL 270820Z 20004KT CAVOK 23/04 Q1017

Time: 12:02 (09:02 UTC)

Forecast

The report was made 4 hours and 2 minutes ago, at 05:00 UTC
Forecast valid from 27 at 06 UTC to 28 at 06 UTC
Wind 3 kt from variable directions
Visibility 10 km or more
Few clouds at a height of 2500 ft
Becoming
from 27 at 09 UTC to 27 at 11 UTC
Wind 10 kt from the South
Becoming
from 27 at 16 UTC to 27 at 18 UTC
Wind 3 kt from variable directions

TAF: LGEL 270500Z 2706/2806 VRB03KT 9999 FEW025 BECMG 2709/2711 18010KT BECMG 2716/2718 VRB03KT

Weather observations and forecasts of more than 4000 airports (METAR and TAF reports).

The available stations are represented by yellow and red dots on the map.

Hover mouse over dot to see the name of the station.

Then click to see weather observations and forecasts.

To change the map : click on the green buttons with a black cross to zoom in, on the green button with a dash to zoom out, or on the green arrows for adjacent maps.


METAR-TAF: